»·PEaware :: N717TS KOTH-KTVL

N717TS :: KOTH-KTVL

FLIGHT INFORMATION

Flight Status: Arrived
Operator: Privately registered:
United States
More flights under this callsign
Pilot: Ty S. (2873)
Aircraft: MITSUBISHI MU-2 MARQUISE
(MU2)
More flights by this aircraft type
Origin: KOTH North Bend Mun
United States
Destination: KTVL Lake Tahoe
United States
More flights between these airports :: More routes between these airports
Route: RBG LMT FMG
File this flight plan on PilotEdge
Remarks:
Altitude:
(Current/Filed)
23,000ft
Speed:
(Current/Filed)
300kts
Departed: 27-Oct-17 04:56 PM
Arrived: 27-Oct-17 06:09 PM
Distance/Time
Traveled:
332nm/1:13
Distance/Time
To Go:
Arrived

Flight Plot

Page will automatically refresh every two minutes.

Flight plan parsing failed; only flown route is shown


Map Options




Map Legend


Flown Route
Filed Route
Departure Airport
Arrival Airport
Navaid (VOR, NDB)
Fix

Horizontal Profiles

Position Reports

Time Latitude Longitude Heading Altitude Ground
Speed
27-Oct-17 16:42 43.416711 -124.246205 61 21ft 0kts
27-Oct-17 16:43 43.416711 -124.246205 61 21ft 0kts
27-Oct-17 16:44 43.416711 -124.246205 61 21ft 0kts
27-Oct-17 16:45 43.416711 -124.246205 61 21ft 0kts
27-Oct-17 16:46 43.416712 -124.246204 61 21ft 0kts
27-Oct-17 16:47 43.416712 -124.246204 61 21ft 0kts
27-Oct-17 16:48 43.416712 -124.246204 61 21ft 0kts
27-Oct-17 16:49 43.416712 -124.246204 61 21ft 0kts
27-Oct-17 16:50 43.416712 -124.246204 61 21ft 0kts
27-Oct-17 16:51 43.416712 -124.246204 61 21ft 0kts
27-Oct-17 16:52 43.416712 -124.246204 61 21ft 0kts
27-Oct-17 16:53 43.416712 -124.246204 61 21ft 0kts
27-Oct-17 16:54 43.416712 -124.246204 61 21ft 0kts
27-Oct-17 16:55 43.417065 -124.245472 145 21ft 9kts
27-Oct-17 16:56 43.414476 -124.243371 150 21ft 12kts
27-Oct-17 16:57 43.411802 -124.241237 149 21ft 13kts
27-Oct-17 16:58 43.409016 -124.238971 133 21ft 0kts
27-Oct-17 16:59 43.408963 -124.238841 110 21ft 0kts
27-Oct-17 17:00 43.409380 -124.237875 355 21ft 4kts
27-Oct-17 17:01 43.421178 -124.247145 333 373ft 135kts
27-Oct-17 17:02 43.411555 -124.282766 169 2937ft 181kts
27-Oct-17 17:03 43.385943 -124.222357 104 5293ft 211kts
27-Oct-17 17:04 43.365663 -124.126081 106 7700ft 237kts
27-Oct-17 17:05 43.348737 -124.053505 106 9476ft 243kts
27-Oct-17 17:06 43.327777 -123.963949 106 11573ft 250kts
27-Oct-17 17:07 43.306189 -123.872052 106 13574ft 258kts
27-Oct-17 17:08 43.283850 -123.777338 106 15489ft 265kts
27-Oct-17 17:09 43.260835 -123.680184 106 17306ft 272kts
27-Oct-17 17:10 43.237020 -123.580095 106 19032ft 280kts
27-Oct-17 17:11 43.212560 -123.477748 106 20653ft 287kts
27-Oct-17 17:12 43.187393 -123.372919 106 22170ft 293kts
27-Oct-17 17:13 43.141771 -123.286113 130 22941ft 267kts
27-Oct-17 17:14 43.087186 -123.198050 130 22986ft 327kts
27-Oct-17 17:15 43.065838 -123.163628 130 22979ft 336kts
27-Oct-17 17:16 43.022745 -123.094582 129 23093ft 335kts
27-Oct-17 17:17 42.962124 -122.996901 129 23102ft 339kts
27-Oct-17 17:18 42.900846 -122.898784 129 23101ft 341kts
27-Oct-17 17:19 42.841889 -122.804717 129 23099ft 341kts
27-Oct-17 17:20 42.780402 -122.706931 129 23075ft 342kts
27-Oct-17 17:21 42.718353 -122.608580 129 23073ft 343kts
27-Oct-17 17:22 42.656121 -122.510268 129 23073ft 343kts
27-Oct-17 17:23 42.593850 -122.412235 129 23072ft 343kts
27-Oct-17 17:24 42.532433 -122.315851 129 23073ft 343kts
27-Oct-17 17:25 42.469871 -122.218002 129 23073ft 343kts
27-Oct-17 17:26 42.407759 -122.121177 129 23207ft 341kts
27-Oct-17 17:27 42.345448 -122.024351 129 23209ft 342kts
27-Oct-17 17:28 42.282716 -121.927203 129 23208ft 342kts
27-Oct-17 17:29 42.220107 -121.830563 129 23209ft 342kts
27-Oct-17 17:30 42.157580 -121.734271 130 23206ft 342kts
27-Oct-17 17:31 42.077281 -121.664725 146 23210ft 345kts
27-Oct-17 17:32 41.995663 -121.597502 146 23209ft 345kts
27-Oct-17 17:33 41.914090 -121.530444 146 23209ft 345kts
27-Oct-17 17:34 41.835092 -121.465698 146 23207ft 344kts
27-Oct-17 17:35 41.753480 -121.399006 146 23206ft 344kts
27-Oct-17 17:36 41.676990 -121.336680 147 23208ft 343kts
27-Oct-17 17:37 41.595545 -121.270509 147 23208ft 343kts
27-Oct-17 17:38 41.514057 -121.204505 147 23208ft 343kts
27-Oct-17 17:39 41.432715 -121.138815 147 23263ft 343kts
27-Oct-17 17:40 41.351100 -121.073097 146 23263ft 343kts
27-Oct-17 17:41 41.269788 -121.007816 146 23263ft 343kts
27-Oct-17 17:42 41.188039 -120.942378 146 23263ft 342kts
27-Oct-17 17:43 41.106614 -120.877392 146 23263ft 342kts
27-Oct-17 17:44 41.025341 -120.812713 146 23263ft 342kts
27-Oct-17 17:45 40.943987 -120.748161 146 23263ft 342kts
27-Oct-17 17:46 40.868406 -120.688356 146 23260ft 341kts
27-Oct-17 17:47 40.790131 -120.626590 146 23260ft 341kts
27-Oct-17 17:48 40.708979 -120.562737 146 23260ft 340kts
27-Oct-17 17:49 40.628060 -120.499244 146 23260ft 340kts
27-Oct-17 17:50 40.546760 -120.435636 146 23261ft 339kts
27-Oct-17 17:51 40.465817 -120.372488 146 23261ft 339kts
27-Oct-17 17:52 40.386647 -120.310897 147 23263ft 339kts
27-Oct-17 17:53 40.305778 -120.248161 147 23263ft 339kts
27-Oct-17 17:54 40.224638 -120.185390 147 23263ft 339kts
27-Oct-17 17:55 40.143666 -120.123477 144 23265ft 333kts
27-Oct-17 17:56 40.064941 -120.062423 144 23262ft 326kts
27-Oct-17 17:57 39.987058 -120.002604 144 23262ft 325kts
27-Oct-17 17:58 39.908353 -119.942339 144 22136ft 331kts
27-Oct-17 17:59 39.842047 -119.891734 145 20897ft 329kts
27-Oct-17 18:00 39.763487 -119.831872 145 19454ft 330kts
27-Oct-17 18:01 39.685496 -119.772643 146 18012ft 320kts
27-Oct-17 18:02 39.609487 -119.715186 146 16590ft 314kts
27-Oct-17 18:03 39.528066 -119.683562 180 15152ft 317kts
27-Oct-17 18:04 39.448200 -119.728934 206 13758ft 314kts
27-Oct-17 18:05 39.373484 -119.784052 210 12467ft 305kts
27-Oct-17 18:06 39.306881 -119.842545 214 12427ft 294kts
27-Oct-17 18:07 39.238900 -119.905424 214 12078ft 299kts
27-Oct-17 18:08 39.172469 -119.958940 206 10222ft 272kts
27-Oct-17 18:09 39.100930 -119.972650 176 8388ft 257kts
27-Oct-17 18:10 39.034507 -119.967353 175 7626ft 211kts
27-Oct-17 18:11 38.986946 -119.967508 191 7656ft 127kts
27-Oct-17 18:12 38.950090 -119.978188 195 7381ft 133kts
27-Oct-17 18:13 38.914567 -119.989242 194 6492ft 130kts
27-Oct-17 18:14 38.892747 -119.996194 227 6268ft 10kts
27-Oct-17 18:15 38.893993 -119.997343 10 6268ft 11kts
27-Oct-17 18:16 38.894485 -119.997033 104 6268ft 0kts

Navigation Log

Ident Type
Flight plan parsing failed, navigation log unavailable